<?xml version="1.0" encoding="utf-8"?>
<gpx xmlns:xsi="http://www.w3.org/2001/XMLSchema-instance" xmlns:xsd="http://www.w3.org/2001/XMLSchema" version="1.1" creator="Shapelink.com" xmlns="http://www.topografix.com/GPX/1/1" xmlns:gpxtpx="http://www.garmin.com/xmlschemas/TrackPointExtension/v1">
  <metadata>
    <name>Gåing 1.52 km, 2012-05-07</name>
    <desc></desc>
    <author><name>Mikael Blom</name></author> 
    <time>2012-05-07T14:55:01Z</time>
  </metadata>
  <trk>
    <name>Gåing 1.52 km, 2012-05-07</name>
    <trkseg>
      <trkpt lat="59.9789372" lon="17.7394309">
        <ele>45.7999</ele>
        <time>2012-05-07T14:55:01Z</time>
      </trkpt>
      <trkpt lat="59.9789421" lon="17.7392381">
        <ele>48.2034</ele>
        <time>2012-05-07T14:55:09Z</time>
      </trkpt>
      <trkpt lat="59.9790232" lon="17.7391875">
        <ele>46.2806</ele>
        <time>2012-05-07T14:55:15Z</time>
      </trkpt>
      <trkpt lat="59.9790386" lon="17.7391845">
        <ele>45.7999</ele>
        <time>2012-05-07T14:55:16Z</time>
      </trkpt>
      <trkpt lat="59.9791377" lon="17.7391633">
        <ele>45.3192</ele>
        <time>2012-05-07T14:55:23Z</time>
      </trkpt>
      <trkpt lat="59.9791841" lon="17.7391197">
        <ele>44.358</ele>
        <time>2012-05-07T14:55:27Z</time>
      </trkpt>
      <trkpt lat="59.9792789" lon="17.7390601">
        <ele>43.3966</ele>
        <time>2012-05-07T14:55:34Z</time>
      </trkpt>
      <trkpt lat="59.9793712" lon="17.739001">
        <ele>42.4354</ele>
        <time>2012-05-07T14:55:40Z</time>
      </trkpt>
      <trkpt lat="59.979467" lon="17.7389459">
        <ele>40.9934</ele>
        <time>2012-05-07T14:55:47Z</time>
      </trkpt>
      <trkpt lat="59.9795536" lon="17.7389093">
        <ele>41.9547</ele>
        <time>2012-05-07T14:55:53Z</time>
      </trkpt>
      <trkpt lat="59.9796437" lon="17.7388651">
        <ele>42.4354</ele>
        <time>2012-05-07T14:55:59Z</time>
      </trkpt>
      <trkpt lat="59.9797443" lon="17.7387919">
        <ele>43.8773</ele>
        <time>2012-05-07T14:56:05Z</time>
      </trkpt>
      <trkpt lat="59.9797825" lon="17.7387933">
        <ele>46.2806</ele>
        <time>2012-05-07T14:56:07Z</time>
      </trkpt>
      <trkpt lat="59.9798816" lon="17.7387534">
        <ele>48.2034</ele>
        <time>2012-05-07T14:56:13Z</time>
      </trkpt>
      <trkpt lat="59.9799772" lon="17.738743">
        <ele>50.6066</ele>
        <time>2012-05-07T14:56:19Z</time>
      </trkpt>
      <trkpt lat="59.9800767" lon="17.7387413">
        <ele>54.4518</ele>
        <time>2012-05-07T14:56:25Z</time>
      </trkpt>
      <trkpt lat="59.9801261" lon="17.7387766">
        <ele>54.9324</ele>
        <time>2012-05-07T14:56:29Z</time>
      </trkpt>
      <trkpt lat="59.9802073" lon="17.7387828">
        <ele>56.8551</ele>
        <time>2012-05-07T14:56:34Z</time>
      </trkpt>
      <trkpt lat="59.9803044" lon="17.7388102">
        <ele>52.5292</ele>
        <time>2012-05-07T14:56:42Z</time>
      </trkpt>
      <trkpt lat="59.9803632" lon="17.7388139">
        <ele>53.0098</ele>
        <time>2012-05-07T14:56:47Z</time>
      </trkpt>
      <trkpt lat="59.9804132" lon="17.7388213">
        <ele>49.6453</ele>
        <time>2012-05-07T14:56:51Z</time>
      </trkpt>
      <trkpt lat="59.9804989" lon="17.7387615">
        <ele>48.2034</ele>
        <time>2012-05-07T14:56:57Z</time>
      </trkpt>
      <trkpt lat="59.9805901" lon="17.7387539">
        <ele>48.684</ele>
        <time>2012-05-07T14:57:02Z</time>
      </trkpt>
      <trkpt lat="59.9806682" lon="17.7387353">
        <ele>46.7612</ele>
        <time>2012-05-07T14:57:07Z</time>
      </trkpt>
      <trkpt lat="59.980714" lon="17.7387264">
        <ele>46.7612</ele>
        <time>2012-05-07T14:57:11Z</time>
      </trkpt>
      <trkpt lat="59.9807762" lon="17.7386922">
        <ele>49.6453</ele>
        <time>2012-05-07T14:57:15Z</time>
      </trkpt>
      <trkpt lat="59.9808541" lon="17.738666">
        <ele>46.7612</ele>
        <time>2012-05-07T14:57:20Z</time>
      </trkpt>
      <trkpt lat="59.9809035" lon="17.7386389">
        <ele>48.684</ele>
        <time>2012-05-07T14:57:23Z</time>
      </trkpt>
      <trkpt lat="59.9810407" lon="17.7386113">
        <ele>52.5292</ele>
        <time>2012-05-07T14:57:32Z</time>
      </trkpt>
      <trkpt lat="59.9811281" lon="17.7385699">
        <ele>55.4131</ele>
        <time>2012-05-07T14:57:38Z</time>
      </trkpt>
      <trkpt lat="59.9811535" lon="17.7385733">
        <ele>56.3745</ele>
        <time>2012-05-07T14:57:39Z</time>
      </trkpt>
      <trkpt lat="59.9812303" lon="17.73858">
        <ele>56.8551</ele>
        <time>2012-05-07T14:57:43Z</time>
      </trkpt>
      <trkpt lat="59.9812776" lon="17.7385653">
        <ele>54.9324</ele>
        <time>2012-05-07T14:57:47Z</time>
      </trkpt>
      <trkpt lat="59.981305" lon="17.7386089">
        <ele>49.6453</ele>
        <time>2012-05-07T14:57:52Z</time>
      </trkpt>
      <trkpt lat="59.9814293" lon="17.7385338">
        <ele>54.4518</ele>
        <time>2012-05-07T14:57:58Z</time>
      </trkpt>
      <trkpt lat="59.9815267" lon="17.738459">
        <ele>55.4131</ele>
        <time>2012-05-07T14:58:05Z</time>
      </trkpt>
      <trkpt lat="59.9815464" lon="17.7384264">
        <ele>55.8938</ele>
        <time>2012-05-07T14:58:07Z</time>
      </trkpt>
      <trkpt lat="59.9816184" lon="17.7384337">
        <ele>57.8165</ele>
        <time>2012-05-07T14:58:11Z</time>
      </trkpt>
      <trkpt lat="59.9817431" lon="17.7384177">
        <ele>56.8551</ele>
        <time>2012-05-07T14:58:18Z</time>
      </trkpt>
      <trkpt lat="59.9817877" lon="17.7384139">
        <ele>58.7777</ele>
        <time>2012-05-07T14:58:20Z</time>
      </trkpt>
      <trkpt lat="59.9818281" lon="17.7384234">
        <ele>57.8165</ele>
        <time>2012-05-07T14:58:23Z</time>
      </trkpt>
      <trkpt lat="59.9818986" lon="17.7383344">
        <ele>55.4131</ele>
        <time>2012-05-07T14:58:29Z</time>
      </trkpt>
      <trkpt lat="59.9819234" lon="17.7382851">
        <ele>56.3745</ele>
        <time>2012-05-07T14:58:31Z</time>
      </trkpt>
      <trkpt lat="59.9820439" lon="17.7382171">
        <ele>58.2971</ele>
        <time>2012-05-07T14:58:39Z</time>
      </trkpt>
      <trkpt lat="59.9821525" lon="17.7382054">
        <ele>55.8938</ele>
        <time>2012-05-07T14:58:45Z</time>
      </trkpt>
      <trkpt lat="59.982259" lon="17.7381862">
        <ele>57.8165</ele>
        <time>2012-05-07T14:58:51Z</time>
      </trkpt>
      <trkpt lat="59.9823555" lon="17.7380794">
        <ele>55.4131</ele>
        <time>2012-05-07T14:58:57Z</time>
      </trkpt>
      <trkpt lat="59.9824776" lon="17.738054">
        <ele>60.7003</ele>
        <time>2012-05-07T14:59:03Z</time>
      </trkpt>
      <trkpt lat="59.982532" lon="17.738083">
        <ele>62.1423</ele>
        <time>2012-05-07T14:59:06Z</time>
      </trkpt>
      <trkpt lat="59.9826248" lon="17.738036">
        <ele>59.7391</ele>
        <time>2012-05-07T14:59:13Z</time>
      </trkpt>
      <trkpt lat="59.9827014" lon="17.7380686">
        <ele>57.3358</ele>
        <time>2012-05-07T14:59:18Z</time>
      </trkpt>
      <trkpt lat="59.9827883" lon="17.7381462">
        <ele>51.0872</ele>
        <time>2012-05-07T14:59:24Z</time>
      </trkpt>
      <trkpt lat="59.9828574" lon="17.7381556">
        <ele>50.126</ele>
        <time>2012-05-07T14:59:28Z</time>
      </trkpt>
      <trkpt lat="59.9828977" lon="17.7381654">
        <ele>49.6453</ele>
        <time>2012-05-07T14:59:31Z</time>
      </trkpt>
      <trkpt lat="59.9829562" lon="17.7382084">
        <ele>46.7612</ele>
        <time>2012-05-07T14:59:37Z</time>
      </trkpt>
      <trkpt lat="59.9830582" lon="17.7382204">
        <ele>43.8773</ele>
        <time>2012-05-07T14:59:43Z</time>
      </trkpt>
      <trkpt lat="59.9830784" lon="17.7382442">
        <ele>44.8386</ele>
        <time>2012-05-07T14:59:44Z</time>
      </trkpt>
      <trkpt lat="59.9831853" lon="17.7382723">
        <ele>44.358</ele>
        <time>2012-05-07T14:59:51Z</time>
      </trkpt>
      <trkpt lat="59.9832978" lon="17.7382441">
        <ele>54.4518</ele>
        <time>2012-05-07T14:59:56Z</time>
      </trkpt>
      <trkpt lat="59.9833994" lon="17.7381945">
        <ele>57.3358</ele>
        <time>2012-05-07T15:00:01Z</time>
      </trkpt>
      <trkpt lat="59.983463" lon="17.7381624">
        <ele>59.7391</ele>
        <time>2012-05-07T15:00:04Z</time>
      </trkpt>
      <trkpt lat="59.9836306" lon="17.7381301">
        <ele>66.4683</ele>
        <time>2012-05-07T15:00:12Z</time>
      </trkpt>
      <trkpt lat="59.9837919" lon="17.7380682">
        <ele>79.9266</ele>
        <time>2012-05-07T15:00:19Z</time>
      </trkpt>
      <trkpt lat="59.9839389" lon="17.7380096">
        <ele>88.5787</ele>
        <time>2012-05-07T15:00:26Z</time>
      </trkpt>
      <trkpt lat="59.9839551" lon="17.7380002">
        <ele>87.6172</ele>
        <time>2012-05-07T15:00:27Z</time>
      </trkpt>
      <trkpt lat="59.9840336" lon="17.737968">
        <ele>85.6946</ele>
        <time>2012-05-07T15:00:33Z</time>
      </trkpt>
      <trkpt lat="59.9840572" lon="17.7379547">
        <ele>83.2914</ele>
        <time>2012-05-07T15:00:35Z</time>
      </trkpt>
      <trkpt lat="59.9841037" lon="17.7379361">
        <ele>77.0428</ele>
        <time>2012-05-07T15:00:41Z</time>
      </trkpt>
      <trkpt lat="59.9841323" lon="17.737965">
        <ele>67.4297</ele>
        <time>2012-05-07T15:00:48Z</time>
      </trkpt>
      <trkpt lat="59.9842068" lon="17.7379157">
        <ele>63.5844</ele>
        <time>2012-05-07T15:00:53Z</time>
      </trkpt>
      <trkpt lat="59.9842623" lon="17.7378879">
        <ele>65.5071</ele>
        <time>2012-05-07T15:00:56Z</time>
      </trkpt>
      <trkpt lat="59.9843788" lon="17.7379691">
        <ele>68.8716</ele>
        <time>2012-05-07T15:01:03Z</time>
      </trkpt>
      <trkpt lat="59.9844301" lon="17.7380329">
        <ele>62.1423</ele>
        <time>2012-05-07T15:01:10Z</time>
      </trkpt>
      <trkpt lat="59.9845397" lon="17.7380633">
        <ele>52.5292</ele>
        <time>2012-05-07T15:01:18Z</time>
      </trkpt>
      <trkpt lat="59.98459" lon="17.7380757">
        <ele>51.0872</ele>
        <time>2012-05-07T15:01:22Z</time>
      </trkpt>
      <trkpt lat="59.9846397" lon="17.7381303">
        <ele>45.7999</ele>
        <time>2012-05-07T15:01:28Z</time>
      </trkpt>
      <trkpt lat="59.9847052" lon="17.7381081">
        <ele>40.0321</ele>
        <time>2012-05-07T15:01:33Z</time>
      </trkpt>
      <trkpt lat="59.9849578" lon="17.7381925">
        <ele>26.5736</ele>
        <time>2012-05-07T15:01:52Z</time>
      </trkpt>
      <trkpt lat="59.985059" lon="17.7382">
        <ele>27.0543</ele>
        <time>2012-05-07T15:01:58Z</time>
      </trkpt>
      <trkpt lat="59.9851277" lon="17.7382404">
        <ele>30.8995</ele>
        <time>2012-05-07T15:02:02Z</time>
      </trkpt>
      <trkpt lat="59.9851889" lon="17.7382484">
        <ele>36.6675</ele>
        <time>2012-05-07T15:02:05Z</time>
      </trkpt>
      <trkpt lat="59.9853267" lon="17.7382468">
        <ele>37.6287</ele>
        <time>2012-05-07T15:02:11Z</time>
      </trkpt>
      <trkpt lat="59.9854268" lon="17.738277">
        <ele>45.7999</ele>
        <time>2012-05-07T15:02:16Z</time>
      </trkpt>
      <trkpt lat="59.9854636" lon="17.73825">
        <ele>50.126</ele>
        <time>2012-05-07T15:02:18Z</time>
      </trkpt>
      <trkpt lat="59.9855946" lon="17.7382813">
        <ele>55.8938</ele>
        <time>2012-05-07T15:02:25Z</time>
      </trkpt>
      <trkpt lat="59.9856484" lon="17.7382866">
        <ele>59.7391</ele>
        <time>2012-05-07T15:02:27Z</time>
      </trkpt>
      <trkpt lat="59.9858344" lon="17.7383606">
        <ele>72.2362</ele>
        <time>2012-05-07T15:02:34Z</time>
      </trkpt>
      <trkpt lat="59.9859361" lon="17.7384088">
        <ele>76.0814</ele>
        <time>2012-05-07T15:02:40Z</time>
      </trkpt>
      <trkpt lat="59.986041" lon="17.7384559">
        <ele>82.3301</ele>
        <time>2012-05-07T15:02:44Z</time>
      </trkpt>
      <trkpt lat="59.9861338" lon="17.7385545">
        <ele>82.8108</ele>
        <time>2012-05-07T15:02:49Z</time>
      </trkpt>
      <trkpt lat="59.9861514" lon="17.7385404">
        <ele>81.3688</ele>
        <time>2012-05-07T15:02:50Z</time>
      </trkpt>
      <trkpt lat="59.9862566" lon="17.7386419">
        <ele>80.4075</ele>
        <time>2012-05-07T15:02:58Z</time>
      </trkpt>
      <trkpt lat="59.986322" lon="17.7386534">
        <ele>71.2749</ele>
        <time>2012-05-07T15:03:05Z</time>
      </trkpt>
      <trkpt lat="59.9863379" lon="17.7386861">
        <ele>65.0264</ele>
        <time>2012-05-07T15:03:08Z</time>
      </trkpt>
      <trkpt lat="59.9863789" lon="17.7387752">
        <ele>60.2197</ele>
        <time>2012-05-07T15:03:13Z</time>
      </trkpt>
      <trkpt lat="59.9864295" lon="17.7388757">
        <ele>55.8938</ele>
        <time>2012-05-07T15:03:19Z</time>
      </trkpt>
      <trkpt lat="59.9864973" lon="17.7389442">
        <ele>52.5292</ele>
        <time>2012-05-07T15:03:25Z</time>
      </trkpt>
      <trkpt lat="59.9866005" lon="17.7389746">
        <ele>50.6066</ele>
        <time>2012-05-07T15:03:32Z</time>
      </trkpt>
      <trkpt lat="59.9866575" lon="17.7390307">
        <ele>52.5292</ele>
        <time>2012-05-07T15:03:36Z</time>
      </trkpt>
      <trkpt lat="59.9867347" lon="17.7391264">
        <ele>53.0098</ele>
        <time>2012-05-07T15:03:42Z</time>
      </trkpt>
      <trkpt lat="59.9867849" lon="17.7392052">
        <ele>53.0098</ele>
        <time>2012-05-07T15:03:46Z</time>
      </trkpt>
      <trkpt lat="59.9869057" lon="17.7393066">
        <ele>54.4518</ele>
        <time>2012-05-07T15:03:54Z</time>
      </trkpt>
      <trkpt lat="59.9870046" lon="17.7393999">
        <ele>55.8938</ele>
        <time>2012-05-07T15:04:00Z</time>
      </trkpt>
      <trkpt lat="59.9870862" lon="17.7393843">
        <ele>57.8165</ele>
        <time>2012-05-07T15:04:06Z</time>
      </trkpt>
      <trkpt lat="59.9871727" lon="17.7394512">
        <ele>56.8551</ele>
        <time>2012-05-07T15:04:13Z</time>
      </trkpt>
      <trkpt lat="59.9871982" lon="17.7394437">
        <ele>56.3745</ele>
        <time>2012-05-07T15:04:15Z</time>
      </trkpt>
      <trkpt lat="59.9872667" lon="17.7394389">
        <ele>56.8551</ele>
        <time>2012-05-07T15:04:21Z</time>
      </trkpt>
      <trkpt lat="59.9873308" lon="17.739424">
        <ele>59.2584</ele>
        <time>2012-05-07T15:04:24Z</time>
      </trkpt>
      <trkpt lat="59.9874045" lon="17.7393828">
        <ele>61.181</ele>
        <time>2012-05-07T15:04:29Z</time>
      </trkpt>
      <trkpt lat="59.987431" lon="17.7393652">
        <ele>62.1423</ele>
        <time>2012-05-07T15:04:31Z</time>
      </trkpt>
      <trkpt lat="59.9875053" lon="17.7393765">
        <ele>59.7391</ele>
        <time>2012-05-07T15:04:35Z</time>
      </trkpt>
      <trkpt lat="59.9875642" lon="17.7393419">
        <ele>64.5457</ele>
        <time>2012-05-07T15:04:38Z</time>
      </trkpt>
      <trkpt lat="59.9876621" lon="17.7393632">
        <ele>65.9877</ele>
        <time>2012-05-07T15:04:43Z</time>
      </trkpt>
      <trkpt lat="59.9877469" lon="17.7393153">
        <ele>72.7169</ele>
        <time>2012-05-07T15:04:48Z</time>
      </trkpt>
      <trkpt lat="59.9878689" lon="17.7393168">
        <ele>79.9266</ele>
        <time>2012-05-07T15:04:54Z</time>
      </trkpt>
      <trkpt lat="59.9879202" lon="17.7393179">
        <ele>81.8494</ele>
        <time>2012-05-07T15:04:57Z</time>
      </trkpt>
      <trkpt lat="59.9880254" lon="17.7393057">
        <ele>84.2527</ele>
        <time>2012-05-07T15:05:05Z</time>
      </trkpt>
      <trkpt lat="59.9880795" lon="17.7393056">
        <ele>80.4075</ele>
        <time>2012-05-07T15:05:10Z</time>
      </trkpt>
      <trkpt lat="59.9881038" lon="17.7392927">
        <ele>80.8882</ele>
        <time>2012-05-07T15:05:13Z</time>
      </trkpt>
      <trkpt lat="59.9882043" lon="17.7392098">
        <ele>80.8882</ele>
        <time>2012-05-07T15:05:19Z</time>
      </trkpt>
      <trkpt lat="59.9883078" lon="17.7391886">
        <ele>77.5234</ele>
        <time>2012-05-07T15:05:26Z</time>
      </trkpt>
      <trkpt lat="59.988335" lon="17.7391677">
        <ele>77.0428</ele>
        <time>2012-05-07T15:05:28Z</time>
      </trkpt>
      <trkpt lat="59.9883586" lon="17.7391505">
        <ele>78.9655</ele>
        <time>2012-05-07T15:05:30Z</time>
      </trkpt>
      <trkpt lat="59.988485" lon="17.7391326">
        <ele>81.3688</ele>
        <time>2012-05-07T15:05:37Z</time>
      </trkpt>
      <trkpt lat="59.9885269" lon="17.7391212">
        <ele>84.2527</ele>
        <time>2012-05-07T15:05:39Z</time>
      </trkpt>
      <trkpt lat="59.9885911" lon="17.7390915">
        <ele>85.6946</ele>
        <time>2012-05-07T15:05:43Z</time>
      </trkpt>
      <trkpt lat="59.9886626" lon="17.7390145">
        <ele>85.214</ele>
        <time>2012-05-07T15:05:49Z</time>
      </trkpt>
      <trkpt lat="59.9887527" lon="17.738969">
        <ele>85.214</ele>
        <time>2012-05-07T15:05:56Z</time>
      </trkpt>
      <trkpt lat="59.9888016" lon="17.7389501">
        <ele>85.214</ele>
        <time>2012-05-07T15:05:59Z</time>
      </trkpt>
      <trkpt lat="59.9888606" lon="17.7389175">
        <ele>86.1753</ele>
        <time>2012-05-07T15:06:03Z</time>
      </trkpt>
      <trkpt lat="59.9889269" lon="17.7388591">
        <ele>83.2914</ele>
        <time>2012-05-07T15:06:08Z</time>
      </trkpt>
      <trkpt lat="59.9889456" lon="17.7388436">
        <ele>84.2527</ele>
        <time>2012-05-07T15:06:09Z</time>
      </trkpt>
      <trkpt lat="59.9889904" lon="17.7388136">
        <ele>83.2914</ele>
        <time>2012-05-07T15:06:13Z</time>
      </trkpt>
      <trkpt lat="59.9890505" lon="17.7387534">
        <ele>78.4847</ele>
        <time>2012-05-07T15:06:19Z</time>
      </trkpt>
      <trkpt lat="59.9891362" lon="17.7387026">
        <ele>78.9655</ele>
        <time>2012-05-07T15:06:24Z</time>
      </trkpt>
      <trkpt lat="59.9891967" lon="17.7386636">
        <ele>73.1976</ele>
        <time>2012-05-07T15:06:30Z</time>
      </trkpt>
      <trkpt lat="59.9892222" lon="17.7386449">
        <ele>73.6782</ele>
        <time>2012-05-07T15:06:32Z</time>
      </trkpt>
      <trkpt lat="59.9893299" lon="17.738531">
        <ele>72.2362</ele>
        <time>2012-05-07T15:06:40Z</time>
      </trkpt>
      <trkpt lat="59.9893946" lon="17.7384947">
        <ele>72.7169</ele>
        <time>2012-05-07T15:06:46Z</time>
      </trkpt>
      <trkpt lat="59.989445" lon="17.7384756">
        <ele>71.7555</ele>
        <time>2012-05-07T15:06:51Z</time>
      </trkpt>
      <trkpt lat="59.9895103" lon="17.7384596">
        <ele>71.2749</ele>
        <time>2012-05-07T15:06:56Z</time>
      </trkpt>
      <trkpt lat="59.9896371" lon="17.7385125">
        <ele>73.1976</ele>
        <time>2012-05-07T15:07:03Z</time>
      </trkpt>
      <trkpt lat="59.989689" lon="17.7384818">
        <ele>75.6008</ele>
        <time>2012-05-07T15:07:06Z</time>
      </trkpt>
      <trkpt lat="59.9897781" lon="17.738438">
        <ele>74.1588</ele>
        <time>2012-05-07T15:07:12Z</time>
      </trkpt>
      <trkpt lat="59.9898841" lon="17.7383929">
        <ele>77.0428</ele>
        <time>2012-05-07T15:07:18Z</time>
      </trkpt>
      <trkpt lat="59.9899531" lon="17.7383943">
        <ele>78.4847</ele>
        <time>2012-05-07T15:07:21Z</time>
      </trkpt>
      <trkpt lat="59.9899905" lon="17.7383723">
        <ele>76.0814</ele>
        <time>2012-05-07T15:07:24Z</time>
      </trkpt>
      <trkpt lat="59.9900127" lon="17.7383695">
        <ele>75.1202</ele>
        <time>2012-05-07T15:07:26Z</time>
      </trkpt>
      <trkpt lat="59.9900857" lon="17.7382852">
        <ele>69.3523</ele>
        <time>2012-05-07T15:07:34Z</time>
      </trkpt>
      <trkpt lat="59.9901198" lon="17.7382645">
        <ele>65.0264</ele>
        <time>2012-05-07T15:07:38Z</time>
      </trkpt>
      <trkpt lat="59.9901867" lon="17.7382494">
        <ele>60.7003</ele>
        <time>2012-05-07T15:07:44Z</time>
      </trkpt>
      <trkpt lat="59.9902883" lon="17.7382017">
        <ele>61.6617</ele>
        <time>2012-05-07T15:07:50Z</time>
      </trkpt>
      <trkpt lat="59.990292" lon="17.7381993">
        <ele>60.2197</ele>
        <time>2012-05-07T15:07:51Z</time>
      </trkpt>
      <trkpt lat="59.9903668" lon="17.7381738">
        <ele>58.2971</ele>
        <time>2012-05-07T15:07:56Z</time>
      </trkpt>
      <trkpt lat="59.9904799" lon="17.7381084">
        <ele>66.949</ele>
        <time>2012-05-07T15:08:02Z</time>
      </trkpt>
      <trkpt lat="59.9904942" lon="17.738097">
        <ele>67.9103</ele>
        <time>2012-05-07T15:08:03Z</time>
      </trkpt>
      <trkpt lat="59.990564" lon="17.7380862">
        <ele>63.5844</ele>
        <time>2012-05-07T15:08:09Z</time>
      </trkpt>
      <trkpt lat="59.9906546" lon="17.7380606">
        <ele>68.3909</ele>
        <time>2012-05-07T15:08:14Z</time>
      </trkpt>
      <trkpt lat="59.990754" lon="17.7380033">
        <ele>72.2362</ele>
        <time>2012-05-07T15:08:20Z</time>
      </trkpt>
      <trkpt lat="59.9908981" lon="17.7379116">
        <ele>79.9266</ele>
        <time>2012-05-07T15:08:27Z</time>
      </trkpt>
      <trkpt lat="59.9909404" lon="17.7378596">
        <ele>80.8882</ele>
        <time>2012-05-07T15:08:29Z</time>
      </trkpt>
      <trkpt lat="59.9910635" lon="17.7377873">
        <ele>82.3301</ele>
        <time>2012-05-07T15:08:36Z</time>
      </trkpt>
      <trkpt lat="59.9911361" lon="17.7377543">
        <ele>72.7169</ele>
        <time>2012-05-07T15:08:42Z</time>
      </trkpt>
      <trkpt lat="59.9912109" lon="17.7377345">
        <ele>69.3523</ele>
        <time>2012-05-07T15:08:48Z</time>
      </trkpt>
      <trkpt lat="59.9912397" lon="17.7376986">
        <ele>60.7003</ele>
        <time>2012-05-07T15:08:53Z</time>
      </trkpt>
      <trkpt lat="59.9912839" lon="17.7376625">
        <ele>57.3358</ele>
        <time>2012-05-07T15:08:57Z</time>
      </trkpt>
      <trkpt lat="59.9914078" lon="17.7376962">
        <ele>58.7777</ele>
        <time>2012-05-07T15:09:04Z</time>
      </trkpt>
      <trkpt lat="59.9914461" lon="17.7377103">
        <ele>55.8938</ele>
        <time>2012-05-07T15:09:07Z</time>
      </trkpt>
      <trkpt lat="59.9914864" lon="17.7377226">
        <ele>46.7612</ele>
        <time>2012-05-07T15:09:13Z</time>
      </trkpt>
      <trkpt lat="59.9916608" lon="17.7376796">
        <ele>42.4354</ele>
        <time>2012-05-07T15:09:29Z</time>
      </trkpt>
      <trkpt lat="59.9917289" lon="17.7376709">
        <ele>47.2418</ele>
        <time>2012-05-07T15:09:32Z</time>
      </trkpt>
      <trkpt lat="59.9918511" lon="17.7376004">
        <ele>50.126</ele>
        <time>2012-05-07T15:09:37Z</time>
      </trkpt>
      <trkpt lat="59.9918956" lon="17.7375823">
        <ele>47.7225</ele>
        <time>2012-05-07T15:09:41Z</time>
      </trkpt>
      <trkpt lat="59.9919827" lon="17.7375417">
        <ele>50.6066</ele>
        <time>2012-05-07T15:09:47Z</time>
      </trkpt>
      <trkpt lat="59.9920693" lon="17.7375499">
        <ele>53.0098</ele>
        <time>2012-05-07T15:09:51Z</time>
      </trkpt>
      <trkpt lat="59.992151" lon="17.7375031">
        <ele>51.0872</ele>
        <time>2012-05-07T15:09:56Z</time>
      </trkpt>
      <trkpt lat="59.9922422" lon="17.7374857">
        <ele>53.9712</ele>
        <time>2012-05-07T15:10:02Z</time>
      </trkpt>
    </trkseg>
  </trk>
</gpx>